Ellisford, Washington
Current Conditions -  °F | °C
As of 12:53 PM on Monday 22 Dec 2014 (Local Time) from KOMK Reporting Station
Clear Clear  
Wind Chill: 44°   Ceiling: Unl
Heat Index: 44°   Visibility: 10mi
Dew Point: 31°   Wind: 0mph
Humidity: 60%   Direction: NA
Pressure: 30.25"   Gusts: NA
Location:  48.6708°N, 119.278°W
Report Text: KOMK 222053Z AUTO 00000KT 10SM CLR 07/M01 A3025 RMK AO2 SLP254 T00671006 51009
Loading
Personal Weather Stations






























Interactive Weather Map New forecast layout! Learn more

10-Day Weather Forecast

Advertisements
Track Severe Weather on mobile